Latest Weather Observations for Yarrawonga

IDN60801

Issued at 10:35 am EDT Monday 24 November 2014 (issued every 30 minutes, with the page automatically refreshed every 10 minutes)

About weather observations | Map of weather stations | Latest weather observations for NSW | Other Formats
Station Details ID: 081124 Name: YARRAWONGA Lat: -36.03 Lon: 146.03 Height: 128.9 m
Data from the previous 72 hours. | See also: Recent months at Yarrawonga
Date/Time
EDT
Temp
°C
App
Temp
°C
Dew
Point
Rel
Hum
%
Delta-T
°C
Wind Press
QNH
hPa
Press
MSL
hPa
Rain
since 9 am
mm
Dir
 
Spd
km/h
Gust
km/h
Spd
kts
Gust
kts
24/10:30am 21.1 18.7 18.3 84 1.8 NNW 28 39 15 21 1010.9 1010.6 1.4
24/10:00am 21.6 19.6 18.2 81 2.1 NW 26 39 14 21 1011.1 1010.8 0.4
24/09:30am 23.8 20.6 16.3 63 4.6 NNW 28 37 15 20 1011.1 1010.8 0.0
24/09:00am 25.3 20.8 15.0 53 6.2 NNW 32 43 17 23 1010.9 1010.6 0.0
24/08:30am 25.6 21.0 14.7 51 6.6 N 32 48 17 26 1010.9 1010.6 0.0
24/08:00am 25.4 22.6 14.2 50 6.7 N 22 32 12 17 1011.4 1011.1 0.0
24/07:30am 25.2 22.6 12.1 44 7.5 N 17 30 9 16 1011.5 1011.2 0.0
24/07:00am 23.6 20.7 11.0 45 7.1 NNE 17 26 9 14 1010.3 1009.9 0.0
24/06:30am 22.4 21.4 10.9 48 6.4 NE 7 13 4 7 1010.7 1010.4 0.0
24/06:00am 20.8 19.4 10.9 53 5.5 NNE 9 13 5 7 1010.0 1009.6 0.0
24/05:30am 20.8 19.4 10.9 53 5.5 NE 9 15 5 8 1010.3 1009.9 0.0
24/05:00am 20.5 19.5 10.9 54 5.3 NE 7 9 4 5 1009.9 1009.5 0.0
24/04:30am 21.1 19.2 10.6 51 5.8 NE 11 15 6 8 1009.8 1009.4 0.0
24/04:00am 20.8 19.2 11.4 55 5.2 NE 11 13 6 7 1009.9 1009.5 0.0
24/03:30am 20.3 19.9 12.5 61 4.4 NE 6 9 3 5 1010.3 1009.9 0.0
24/03:00am 19.5 19.0 12.0 62 4.2 ENE 6 7 3 4 1010.2 1009.8 0.0
24/02:30am 19.8 19.1 12.1 61 4.3 E 7 9 4 5 1010.9 1010.6 0.0
24/02:00am 21.7 21.5 11.7 53 5.6 SE 4 7 2 4 1011.3 1011.0 0.0
24/01:30am 22.6 22.2 12.3 52 5.9 ESE 6 7 3 4 1011.5 1011.2 0.0
24/01:00am 22.9 21.8 11.9 50 6.2 NNW 9 15 5 8 1012.1 1011.8 0.0
24/12:30am 22.6 20.6 11.4 49 6.3 SW 13 19 7 10 1013.0 1012.7 0.0
24/12:00am 25.4 20.2 7.1 31 9.7 SW 24 32 13 17 1012.3 1012.0 0.0
 
Date/Time
EDT
Temp
°C
App
Temp
°C
Dew
Point
Rel
Hum
%
Delta-T
°C
Wind Press
QNH
hPa
Press
MSL
hPa
Rain
since 9 am
mm
Dir
 
Spd
km/h
Gust
km/h
Spd
kts
Gust
kts
23/11:30pm 25.8 23.0 6.9 30 10.0 SW 11 20 6 11 1012.8 1012.5 0.0
23/11:00pm 25.3 23.4 7.4 32 9.5 SE 7 13 4 7 1010.8 1010.5 0.0
23/10:30pm 25.6 22.7 8.1 33 9.4 WSW 13 19 7 10 1012.0 1011.7 0.0
23/10:00pm 26.1 24.0 8.1 32 9.7 WNW 9 13 5 7 1012.6 1012.3 0.0
23/09:30pm 26.9 25.4 8.4 31 10.1 W 6 7 3 4 1012.5 1012.2 0.0
23/09:00pm 27.5 24.9 7.9 29 10.6 WSW 11 15 6 8 1012.8 1012.5 0.0
23/08:30pm 28.7 24.6 7.9 27 11.3 WSW 19 26 10 14 1012.2 1011.9 0.0
23/08:00pm 29.9 26.7 9.9 29 11.3 W 17 24 9 13 1011.6 1011.3 0.0
23/07:30pm 30.7 27.2 10.1 28 11.8 W 19 24 10 13 1010.7 1010.4 0.0
23/07:00pm 31.4 27.5 10.7 28 12.0 W 22 30 12 16 1010.2 1009.8 0.0
23/06:30pm 32.1 27.6 10.2 26 12.6 W 24 30 13 16 1010.1 1009.7 0.0
23/06:00pm 33.3 29.5 12.3 28 12.6 W 24 33 13 18 1009.8 1009.4 0.0
23/05:30pm 34.2 31.2 12.5 27 13.1 W 20 26 11 14 1009.7 1009.3 0.0
23/05:00pm 34.0 30.4 12.9 28 12.8 W 24 39 13 21 1009.6 1009.2 0.0
23/04:30pm 34.7 31.2 13.5 28 13.0 WNW 24 35 13 19 1009.8 1009.4 0.0
23/04:00pm 34.4 31.8 13.3 28 12.9 WNW 19 26 10 14 1009.8 1009.4 0.0
23/03:30pm 35.5 32.5 12.5 25 13.9 W 20 30 11 16 1009.4 1009.0 0.0
23/03:00pm 34.7 31.8 12.4 26 13.4 WNW 19 28 10 15 1009.4 1009.0 0.0
23/02:30pm 34.5 33.1 13.3 27 12.9 NNW 13 22 7 12 1009.6 1009.2 0.0
23/02:00pm 34.3 33.2 13.2 28 12.8 N 11 20 6 11 1009.5 1009.1 0.0
23/01:30pm 32.6 31.6 13.3 31 11.7 NNW 11 19 6 10 1009.8 1009.4 0.0
23/01:00pm 32.2 31.6 13.4 32 11.4 N 9 20 5 11 1010.1 1009.7 0.0
23/12:30pm 31.6 31.2 12.9 32 11.2 S 7 11 4 6 1010.3 1009.9 0.0
23/12:00pm 31.3 31.1 13.1 33 10.9 SE 6 15 3 8 1010.4 1010.0 0.0
23/11:30am 30.3 30.1 13.6 36 10.1 SE 7 13 4 7 1010.6 1010.2 0.0
23/11:00am 29.2 28.8 14.2 40 9.1 S 9 15 5 8 1010.9 1010.6 0.0
23/10:30am 28.0 27.8 14.6 44 8.1 S 9 17 5 9 1011.1 1010.8 0.0
23/10:00am 26.8 27.3 15.5 50 6.9 SSW 7 13 4 7 1011.2 1010.9 0.0
23/09:30am 25.1 25.8 16.0 57 5.6 S 7 11 4 6 1011.5 1011.2 0.0
23/09:00am 24.0 25.2 17.3 66 4.2 S 7 11 4 6 1011.6 1011.3 1.0
23/08:30am 22.4 23.8 17.3 73 3.2 S 6 9 3 5 1011.5 1011.2 1.0
23/08:00am 21.5 23.2 17.1 76 2.7 SSE 4 7 2 4 1011.1 1010.8 1.0
23/07:30am 20.4 22.2 16.4 78 2.4 S 2 4 1 2 1010.7 1010.4 1.0
23/07:00am 19.5 21.2 16.3 82 1.9 E 2 4 1 2 1010.4 1010.0 1.0
23/06:30am 17.2 18.9 16.1 93 0.7 SE 2 4 1 2 1010.1 1009.7 1.0
23/06:00am 17.1 18.3 16.0 93 0.7 SE 4 4 2 2 1009.9 1009.5 1.0
23/05:30am 17.5 18.9 16.4 93 0.7 SSE 4 6 2 3 1010.0 1009.6 1.0
23/05:00am 17.3 18.2 16.2 93 0.7 SE 6 7 3 4 1009.4 1009.0 1.0
23/04:30am 17.7 18.4 16.2 91 0.9 ESE 7 9 4 5 1009.3 1008.9 1.0
23/04:00am 18.5 20.6 17.2 92 0.8 ESE 2 7 1 4 1010.1 1009.7 1.0
23/03:30am 18.3 19.3 16.8 91 0.9 ENE 7 11 4 6 1009.7 1009.3 1.0
23/03:00am 17.6 18.9 16.1 91 0.9 ENE 4 6 2 3 1009.8 1009.4 0.4
23/02:30am 18.4 19.9 16.6 89 1.1 NW 4 11 2 6 1010.6 1010.2 0.2
23/02:00am 17.3 18.2 15.1 87 1.3 SE 4 6 2 3 1010.0 1009.6 0.2
23/01:30am 18.2 18.7 15.1 82 1.8 E 6 7 3 4 1010.2 1009.8 0.2
23/01:00am 18.4 18.9 15.5 83 1.7 E 7 9 4 5 1010.5 1010.1 0.2
23/12:30am 19.2 19.8 15.9 81 2.0 SE 7 11 4 6 1010.7 1010.4 0.2
23/12:00am 20.2 20.9 15.6 75 2.7 NE 6 9 3 5 1011.8 1011.5 0.0
 
Date/Time
EDT
Temp
°C
App
Temp
°C
Dew
Point
Rel
Hum
%
Delta-T
°C
Wind Press
QNH
hPa
Press
MSL
hPa
Rain
since 9 am
mm
Dir
 
Spd
km/h
Gust
km/h
Spd
kts
Gust
kts
22/11:30pm 19.9 20.2 15.1 74 2.8 E 7 11 4 6 1010.8 1010.5 0.0
22/11:00pm 19.8 20.2 15.2 75 2.7 E 7 11 4 6 1010.7 1010.4 0.0
22/10:30pm 21.2 22.9 16.2 73 3.0 SSE 2 4 1 2 1011.4 1011.1 0.0
22/10:00pm 21.9 23.4 15.7 68 3.7 NW 2 6 1 3 1011.0 1010.7 0.0
22/09:30pm 21.9 23.0 16.6 72 3.2 WSW 6 9 3 5 1010.8 1010.5 0.0
22/09:00pm 25.1 23.7 12.3 45 7.4 W 11 17 6 9 1011.0 1010.7 0.0
22/08:30pm 25.6 23.5 11.0 40 8.3 W 13 19 7 10 1010.7 1010.4 0.0
22/08:00pm 27.3 23.9 9.2 32 10.0 W 17 22 9 12 1010.8 1010.5 0.0
22/07:30pm 28.2 24.5 9.5 31 10.4 WNW 19 28 10 15 1010.5 1010.1 0.0
22/07:00pm 29.6 24.0 8.6 27 11.7 NW 28 48 15 26 1009.9 1009.5 0.0
22/06:59pm 29.7 24.0 8.2 26 11.8 NW 28 48 15 26 1009.8 1009.4 0.0
22/06:30pm 30.0 27.8 6.0 22 12.8 N 7 9 4 5 1009.5 1009.1 0.0
22/06:00pm 30.4 29.7 7.0 23 12.7 CALM 0 0 0 0 1009.2 1008.8 0.0
22/05:30pm 30.7 28.4 5.9 21 13.2 NE 7 11 4 6 1008.8 1008.4 0.0
22/05:00pm 31.2 28.3 4.9 19 13.9 ENE 9 13 5 7 1008.5 1008.1 0.0
22/04:30pm 31.7 30.5 4.5 18 14.2 CALM 0 4 0 2 1008.9 1008.5 0.0
22/04:00pm 32.6 30.2 5.2 18 14.6 WSW 7 13 4 7 1009.9 1009.5 0.0
22/03:30pm 30.9 28.4 4.6 19 13.7 WSW 7 9 4 5 1010.4 1010.0 0.0
22/03:00pm 31.4 27.8 5.0 19 13.9 WNW 13 26 7 14 1010.7 1010.4 0.0
22/02:30pm 31.9 27.7 3.8 17 14.6 WNW 15 28 8 15 1010.8 1010.5 0.0
22/02:00pm 31.8 28.9 4.6 18 14.3 NW 9 15 5 8 1011.0 1010.7 0.0
22/01:30pm 32.4 28.1 5.1 18 14.5 NW 17 26 9 14 1011.4 1011.1 0.0
22/01:00pm 32.3 29.5 5.0 18 14.5 NW 9 20 5 11 1011.4 1011.1 0.0
22/12:30pm 31.9 29.2 5.4 19 14.1 NW 9 24 5 13 1011.4 1011.1 0.0
22/12:00pm 30.1 27.7 5.4 21 13.0 N 7 13 4 7 1011.5 1011.2 0.0
22/11:30am 28.4 26.0 5.3 23 12.0 NNE 7 17 4 9 1011.5 1011.2 0.0
22/11:00am 28.0 25.5 5.0 23 11.9 NE 7 13 4 7 1011.5 1011.2 0.0
22/10:30am 26.9 25.0 6.9 28 10.6 ENE 6 11 3 6 1011.9 1011.6 0.0
22/10:00am 25.2 22.8 8.7 35 9.0 E 11 15 6 8 1011.8 1011.5 0.0
22/09:30am 23.7 21.5 9.3 40 7.8 ENE 11 17 6 9 1012.0 1011.7 0.0
22/09:00am 21.8 19.5 9.0 44 6.9 ENE 11 17 6 9 1012.2 1011.9 0.0
22/08:30am 21.0 19.2 9.3 47 6.3 E 9 13 5 7 1012.2 1011.9 0.0
22/08:00am 19.1 17.3 9.6 54 5.1 E 9 13 5 7 1012.1 1011.8 0.0
22/07:30am 17.2 15.5 9.9 62 3.9 E 9 13 5 7 1012.3 1012.0 0.0
22/07:00am 13.4 12.6 9.8 79 1.9 E 4 6 2 3 1012.1 1011.8 0.0
22/06:30am 11.9 10.9 8.9 82 1.5 E 4 6 2 3 1011.8 1011.5 0.0
22/06:00am 11.5 9.8 8.2 80 1.6 ESE 7 9 4 5 1011.5 1011.2 0.0
22/05:30am 11.6 10.0 7.9 78 1.8 E 6 7 3 4 1011.1 1010.8 0.0
22/05:00am 11.5 9.5 7.0 74 2.2 E 7 9 4 5 1010.8 1010.5 0.0
22/04:30am 11.7 9.9 7.0 73 2.3 E 6 6 3 3 1010.6 1010.2 0.0
22/04:00am 11.4 10.0 7.3 76 2.0 ESE 4 4 2 2 1010.6 1010.2 0.0
22/03:30am 11.7 10.0 7.6 76 2.0 SE 6 7 3 4 1010.3 1009.9 0.0
22/03:00am 12.9 12.3 7.4 69 2.7 CALM 0 4 0 2 1010.6 1010.2 0.0
22/02:30am 13.9 12.9 7.4 65 3.2 NNW 2 4 1 2 1010.9 1010.6 0.0
22/02:00am 14.2 13.2 7.3 63 3.4 N 2 4 1 2 1010.9 1010.6 0.0
22/01:30am 14.5 14.1 8.2 66 3.2 CALM 0 2 0 1 1011.1 1010.8 0.0
22/01:00am 16.9 16.1 8.3 57 4.4 WSW 2 2 1 1 1011.3 1011.0 0.0
22/12:30am 17.0 16.4 8.9 59 4.2 WSW 2 4 1 2 1011.6 1011.3 0.0
22/12:00am 17.9 16.9 8.7 55 4.8 WSW 4 6 2 3 1011.7 1011.4 0.0
 
Date/Time
EDT
Temp
°C
App
Temp
°C
Dew
Point
Rel
Hum
%
Delta-T
°C
Wind Press
QNH
hPa
Press
MSL
hPa
Rain
since 9 am
mm
Dir
 
Spd
km/h
Gust
km/h
Spd
kts
Gust
kts
21/11:30pm 18.1 16.9 8.1 52 5.1 WSW 4 4 2 2 1011.8 1011.5 0.0
21/11:00pm 17.6 16.6 9.0 57 4.5 W 4 4 2 2 1011.8 1011.5 0.0
21/10:30pm 18.3 17.2 8.3 52 5.2 W 4 6 2 3 1011.8 1011.5 0.0
21/10:00pm 18.5 17.3 7.9 50 5.5 W 4 6 2 3 1011.6 1011.3 0.0
21/09:30pm 19.7 18.5 6.4 42 6.7 WSW 2 4 1 2 1011.3 1011.0 0.0
21/09:00pm 20.4 18.6 7.1 42 6.8 WSW 6 6 3 3 1010.9 1010.6 0.0
21/08:30pm 21.5 19.5 7.0 39 7.5 W 7 7 4 4 1010.5 1010.1 0.0
21/08:00pm 23.9 21.7 6.2 32 9.1 WSW 7 9 4 5 1010.2 1009.8 0.0
21/07:30pm 26.0 22.5 5.6 27 10.5 W 13 17 7 9 1010.1 1009.7 0.0
21/07:00pm 27.8 24.2 6.6 26 11.3 W 15 20 8 11 1009.7 1009.3 0.0
21/06:30pm 28.4 25.5 6.5 25 11.6 W 11 17 6 9 1009.2 1008.8 0.0
21/06:00pm 28.9 26.0 6.3 24 12.0 WNW 11 22 6 12 1009.0 1008.6 0.0
21/05:30pm 28.8 24.7 6.2 24 12.0 W 17 30 9 16 1008.9 1008.5 0.0
21/05:00pm 29.6 26.6 7.5 25 12.1 W 13 24 7 13 1009.0 1008.6 0.0
21/04:30pm 29.0 24.5 7.0 25 11.8 WSW 20 30 11 16 1009.1 1008.7 0.0
21/04:00pm 29.1 25.0 7.7 26 11.7 W 19 30 10 16 1009.1 1008.7 0.0
21/03:30pm 28.9 24.8 8.0 27 11.4 WNW 19 32 10 17 1009.4 1009.0 0.0
21/03:00pm 28.7 24.7 8.4 28 11.2 WNW 19 37 10 20 1009.6 1009.2 0.0
21/02:30pm 27.9 24.6 9.7 32 10.2 SW 17 30 9 16 1009.7 1009.3 0.0
21/02:00pm 27.6 22.9 9.4 32 10.1 W 24 33 13 18 1009.9 1009.5 0.0
21/01:30pm 26.9 23.1 9.7 34 9.6 W 20 37 11 20 1010.0 1009.6 0.0
21/01:00pm 26.9 23.9 11.8 39 8.7 WSW 19 28 10 15 1010.0 1009.6 0.0
21/12:30pm 26.1 23.9 13.2 44 7.6 SW 17 30 9 16 1010.1 1009.7 0.0
21/12:00pm 25.4 22.8 13.3 47 7.1 WSW 19 28 10 15 1010.2 1009.8 0.0
21/11:30am 24.7 22.2 13.6 50 6.5 WSW 19 33 10 18 1010.4 1010.0 0.0
21/11:00am 23.7 21.1 13.3 52 6.1 W 19 28 10 15 1010.4 1010.0 0.0

Other Formats:

Comma delimited format used in spreadsheet applications
http://www.bom.gov.au/fwo/IDN60801/IDN60801.94862.axf

JavaScript Object Notation format (JSON) in row-major order
http://www.bom.gov.au/fwo/IDN60801/IDN60801.94862.json